LIPE/BLQ METAR and TAF weather

Enter ICAO airport designator
Station Type Date Time Source
LIPE METAR 2023/12/09 10:20 UTC NOAA

LIPE 091020Z 28005KT 250V310 7000 SCT008 BKN030 06/03 Q1019


Station Type Date Time Source
LIPE Decoded METAR 2023/12/09 10:20 UTC NOAA

Bologna / Borgo Panigale, Italy (LIPE) 44-32N 011-18E 49M
Dec 09, 2023 - 05:20 AM EST / 2023.12.09 1020 UTC
Wind: from the W (280 degrees) at 6 MPH (5 KT) (direction variable):0
Visibility: 4 mile(s):0
Sky conditions: mostly cloudy
Temperature: 42 F (6 C)
Dew Point: 37 F (3 C)
Relative Humidity: 81%
Pressure (altimeter): 30.09 in. Hg (1019 hPa)
ob: LIPE 091020Z 28005KT 250V310 7000 SCT008 BKN030 06/03 Q1019
cycle: 10

Station Type Date Time Source
LIPE TAF 2023/12/09 06:21 UTC NOAA

TAF TAF LIPE 090500Z 0906/1006 28005KT 7000 BKN035
TEMPO 0906/0909 3000 BR
BECMG 0916/0918 3000 BR BKN010

Example: see airport list